Pagrindinis puslapis
METAR-TAF:

METAR-TAF

Oro uostai :

Džida, Saudo Arabija

platuma: 21-42N, ilguma: 039-11E, Aukštis: 15 m

Dabartinis oras

Ataskaita buvo paskelbta 36 minutes, ne 05:00 UTC
Vėjas 6 kt iš Šiaurės/Šiaurės Rytų
Temperatūra 21°C
Drėgmė 49%
Slėgis 1015 hPa
Matomumas 10 km arba daugiau
Išsisklaidę debesys ne aukštis 4000 ft

METAR: OEJN 230500Z 02006KT 9999 SCT040 21/10 Q1015 NOSIG

Laikas: 08:36 (05:36 UTC)

Prognozė

Ataskaita buvo paskelbta 36 minutes, ne 05:00 UTC
Prognozė galioja nuo 23 metu 06 UTC su 24 metu 12 UTC
Vėjas 14 kt iš Šiaurės Vakarų
Matomumas 10 km arba daugiau
nėra debesų žemiau 1500 m ir nėra kamuolinių lietaus debesų
Tapsmas
nuo 23 metu 18 UTC su 23 metu 20 UTC
Vėjas 8 kt iš Šiaurės/Šiaurės Rytų
Matomumas: 7000 m
Mažai debesys ne aukštis 4000 ft

TAF: OEJN 230500Z 2306/2412 32014KT CAVOK BECMG 2318/2320 03008KT 7000 FEW040

Orai ataskaitas ir orų prognozės (METAR, TAF).

turimą stotys yra geltonos ir raudonos taškus žemėlapyje.

Perkelti pele per norėdami pamatyti stoties vardą.

Tada spustelėkite, norėdami matyti oro stebėjimo ir prognozės.

Norėdami pakeisti žemėlapį: spustelėkite ant žalios mygtukų su juodo kryžiaus žemyn,; žalią mygtuką su brūkšneliu, jei norite nutolinti; arba žalių rodyklių gretimoms žemėlapius.


METAR-TAF: